Beverly Hills CT, Puerto Rico
Current Conditions -  °F | °C
As of 11:56 PM on Saturday 25 Oct 2014 (Local Time) from TJSJ Reporting Station
Few Clouds Few Clouds  
Wind Chill: 82°   Ceiling: Unl
Heat Index: 89°   Visibility: 10mi
Dew Point: 76°   Wind: 0mph
Humidity: 82%   Direction: NA
Pressure: 29.89"   Gusts: NA
Location:  18.3754°N, 66.0577°W
Report Text: TJSJ 260356Z 00000KT 10SM FEW028 28/24 A2989 RMK AO2 SLP121 T02780244 403390261
Loading
Personal Weather Stations






























Interactive Weather Map
Tropical Storm Tracking
New forecast layout! Learn more

10-Day Weather Forecast

Advertisements
Track Severe Weather on mobile